createdAt,value
2022-09-05T00:00:37.476Z,3.40
2022-09-05T00:03:57.820Z,3.20
2022-09-05T00:07:38.764Z,3.50
2022-09-05T00:11:41.524Z,3.90
2022-09-05T00:15:14.641Z,3.08
2022-09-05T00:22:57.763Z,3.80
2022-09-05T00:24:28.429Z,3.85
2022-09-05T00:25:36.574Z,3.45
2022-09-05T00:29:56.473Z,3.50
2022-09-05T00:33:19.145Z,3.72
2022-09-05T00:36:56.348Z,3.60
2022-09-05T00:40:21.130Z,3.67
2022-09-05T00:43:42.081Z,3.85
2022-09-05T00:47:14.022Z,3.88
2022-09-05T00:50:25.471Z,3.60
2022-09-05T00:53:59.169Z,3.88
2022-09-05T00:57:22.219Z,3.40
2022-09-05T01:00:57.089Z,3.97
2022-09-05T01:04:31.063Z,4.03
2022-09-05T01:07:50.904Z,3.78
2022-09-05T01:11:12.116Z,3.88
2022-09-05T01:18:30.996Z,3.40
2022-09-05T01:21:48.222Z,3.60
2022-09-05T01:25:11.844Z,3.70
2022-09-05T01:29:16.853Z,4.07
2022-09-05T01:32:03.678Z,4.10
2022-09-05T01:35:26.237Z,4.03
2022-09-05T01:40:11.276Z,3.85
2022-09-05T01:42:38.913Z,3.60
2022-09-05T01:46:01.173Z,4.00
2022-09-05T01:49:14.324Z,4.50
2022-09-05T01:52:57.109Z,3.45
2022-09-05T01:56:24.015Z,3.80
2022-09-05T01:59:45.977Z,4.05
2022-09-05T02:03:09.375Z,4.10
2022-09-05T02:06:48.149Z,4.15
2022-09-05T02:10:07.180Z,4.28
2022-09-05T02:13:30.856Z,4.18
2022-09-05T02:16:44.415Z,4.22
2022-09-05T02:20:26.850Z,4.35
2022-09-05T02:23:42.970Z,3.83
2022-09-05T02:27:04.365Z,4.20
2022-09-05T02:30:24.564Z,4.35
2022-09-05T02:33:38.446Z,4.32
2022-09-05T02:37:33.796Z,4.30
2022-09-05T02:45:02.889Z,4.30
2022-09-05T02:45:19.717Z,4.03
2022-09-05T02:48:14.791Z,4.43
2022-09-05T02:57:25.371Z,4.40
2022-09-05T02:57:36.527Z,5.32
2022-09-05T02:59:08.518Z,4.70
2022-09-05T03:02:56.672Z,4.97
2022-09-05T03:06:13.442Z,4.65
2022-09-05T03:09:41.549Z,5.10
2022-09-05T03:13:10.791Z,4.82
2022-09-05T03:16:50.014Z,4.68
2022-09-05T03:20:28.896Z,4.80
2022-09-05T03:23:59.948Z,4.95
2022-09-05T03:27:07.741Z,5.20
2022-09-05T03:30:34.555Z,4.82
2022-09-05T03:33:54.756Z,5.13
2022-09-05T03:37:33.058Z,4.78
2022-09-05T03:41:13.864Z,4.75
2022-09-05T03:44:54.252Z,5.47
2022-09-05T03:48:28.709Z,4.93
2022-09-05T03:57:13.121Z,4.60
2022-09-05T03:57:13.604Z,5.05
2022-09-05T03:59:44.032Z,4.53
2022-09-05T04:08:08.765Z,5.13
2022-09-05T04:13:07.501Z,4.88
2022-09-05T04:19:28.669Z,4.45
2022-09-05T04:23:06.251Z,4.68
2022-09-05T04:26:34.760Z,4.63
2022-09-05T04:29:42.733Z,4.80
2022-09-05T04:33:08.283Z,4.78
2022-09-05T04:36:33.748Z,4.35
2022-09-05T04:39:37.069Z,4.30
2022-09-05T04:45:49.225Z,4.85
2022-09-05T04:49:12.791Z,10.25
2022-09-05T04:52:56.174Z,4.15
2022-09-05T04:55:58.999Z,4.25
2022-09-05T05:01:46.062Z,4.72
2022-09-05T05:06:10.661Z,5.07
2022-09-05T05:09:58.335Z,5.25
2022-09-05T05:18:00.830Z,5.95
2022-09-05T05:18:07.470Z,4.82
2022-09-05T05:20:41.877Z,5.15
2022-09-05T05:24:10.284Z,5.38
2022-09-05T05:27:19.612Z,5.70
2022-09-05T05:33:35.557Z,6.07
2022-09-05T05:40:38.364Z,5.38
2022-09-05T05:43:52.996Z,5.72
2022-09-05T05:47:33.524Z,5.43
2022-09-05T05:51:07.604Z,6.18
2022-09-05T05:57:45.711Z,5.53
2022-09-05T06:01:38.296Z,5.43
2022-09-05T06:05:01.909Z,5.97
2022-09-05T06:12:48.716Z,6.35
2022-09-05T06:15:05.919Z,6.28
2022-09-05T06:15:52.319Z,5.95
2022-09-05T06:19:16.230Z,5.93
2022-09-05T06:26:05.025Z,6.15
2022-09-05T06:29:34.306Z,5.47
2022-09-05T06:33:22.354Z,4.93
2022-09-05T06:36:37.248Z,4.10
2022-09-05T06:40:04.066Z,3.45
2022-09-05T06:43:21.087Z,3.72
2022-09-05T06:47:23.040Z,3.45
2022-09-05T06:50:24.405Z,2.80
2022-09-05T06:54:14.819Z,2.72
2022-09-05T06:57:31.959Z,2.83
2022-09-05T07:05:37.406Z,2.85
2022-09-05T07:08:35.112Z,3.17
2022-09-05T07:12:00.997Z,2.97
2022-09-05T07:15:40.138Z,2.65
2022-09-05T07:19:29.000Z,2.42
2022-09-05T07:23:40.955Z,2.22
2022-09-05T07:26:49.617Z,2.33
2022-09-05T07:30:01.002Z,2.65
2022-09-05T07:33:04.833Z,2.13
2022-09-05T07:36:16.209Z,2.20
2022-09-05T07:39:30.915Z,2.00
2022-09-05T07:42:44.346Z,2.28
2022-09-05T07:46:30.871Z,2.00
2022-09-05T07:50:06.426Z,2.08
2022-09-05T07:56:53.303Z,1.70
2022-09-05T07:57:27.046Z,2.20
2022-09-05T08:01:04.349Z,1.88
2022-09-05T08:04:34.393Z,1.90
2022-09-05T08:07:46.632Z,2.03
2022-09-05T08:11:24.180Z,1.75
2022-09-05T08:14:54.949Z,2.03
2022-09-05T08:18:00.068Z,1.98
2022-09-05T08:21:11.880Z,2.00
2022-09-05T08:24:16.633Z,2.15
2022-09-05T08:27:35.971Z,2.33
2022-09-05T08:30:44.115Z,2.38
2022-09-05T08:33:48.801Z,1.88
2022-09-05T08:36:53.028Z,1.52
2022-09-05T08:40:11.068Z,1.50
2022-09-05T08:46:37.879Z,1.50
2022-09-05T08:46:59.585Z,1.42
2022-09-05T08:50:29.445Z,1.40
2022-09-05T08:53:53.528Z,1.48
2022-09-05T08:57:10.002Z,1.70
2022-09-05T09:00:31.399Z,1.42
2022-09-05T09:04:14.200Z,1.42
2022-09-05T09:07:51.580Z,1.75
2022-09-05T09:11:10.977Z,1.50
2022-09-05T09:14:51.066Z,1.83
2022-09-05T09:17:53.999Z,1.50
2022-09-05T09:21:23.436Z,1.63
2022-09-05T09:24:41.364Z,1.63
2022-09-05T09:28:47.291Z,1.60
2022-09-05T09:31:45.151Z,1.52
2022-09-05T09:35:16.247Z,1.70
2022-09-05T09:38:48.340Z,1.60
2022-09-05T09:42:14.986Z,1.50
2022-09-05T09:45:53.394Z,1.33
2022-09-05T09:49:22.472Z,1.13
2022-09-05T09:52:24.580Z,1.70
2022-09-05T09:56:06.784Z,1.88
2022-09-05T10:07:08.711Z,1.40
2022-09-05T10:10:53.993Z,1.40
2022-09-05T10:11:23.798Z,1.50
2022-09-05T10:14:50.906Z,1.02
2022-09-05T10:18:31.419Z,1.23
2022-09-05T10:26:03.191Z,1.48
2022-09-05T10:29:39.785Z,1.45
2022-09-05T10:35:07.489Z,1.13
2022-09-05T10:36:22.294Z,1.30
2022-09-05T10:39:34.078Z,1.30
2022-09-05T10:43:00.711Z,1.33
2022-09-05T10:46:50.279Z,1.00
2022-09-05T10:50:07.033Z,0.98
2022-09-05T10:53:45.979Z,1.27
2022-09-05T10:57:32.059Z,1.27
2022-09-05T11:02:20.277Z,1.17
2022-09-05T11:04:50.357Z,1.10
2022-09-05T11:07:55.610Z,1.20
2022-09-05T11:11:29.563Z,1.15
2022-09-05T11:15:03.814Z,1.00
2022-09-05T11:18:10.714Z,1.20
2022-09-05T11:21:18.964Z,1.00
2022-09-05T11:24:35.418Z,1.02
2022-09-05T11:27:50.110Z,1.00
2022-09-05T11:30:57.298Z,1.25
2022-09-05T11:39:54.023Z,1.27
2022-09-05T11:40:02.603Z,1.20
2022-09-05T11:41:54.971Z,1.10
2022-09-05T11:45:39.750Z,1.63
2022-09-05T11:49:04.998Z,1.20
2022-09-05T11:52:44.141Z,1.33
2022-09-05T11:56:07.961Z,1.60
2022-09-05T11:59:33.144Z,1.38
2022-09-05T12:02:49.637Z,1.40
2022-09-05T12:06:07.420Z,1.73
2022-09-05T12:09:26.831Z,1.33
2022-09-05T12:12:43.358Z,1.10
2022-09-05T12:16:07.428Z,1.50
2022-09-05T12:19:24.356Z,1.48
2022-09-05T12:22:39.214Z,1.52
2022-09-05T12:27:42.788Z,1.42
2022-09-05T12:29:35.493Z,1.20
2022-09-05T12:36:01.800Z,1.30
2022-09-05T12:39:01.382Z,1.40
2022-09-05T12:44:36.381Z,1.45
2022-09-05T12:47:16.569Z,1.17
2022-09-05T12:50:32.333Z,1.20
2022-09-05T12:53:46.592Z,1.20
2022-09-05T13:02:17.328Z,1.25
2022-09-05T13:03:07.157Z,1.20
2022-09-05T13:04:27.103Z,1.25
2022-09-05T13:07:48.163Z,1.20
2022-09-05T13:14:49.895Z,1.10
2022-09-05T13:15:20.191Z,1.25
2022-09-05T13:18:42.527Z,1.20
2022-09-05T13:25:13.886Z,1.45
2022-09-05T13:28:20.262Z,1.30
2022-09-05T13:38:21.015Z,1.20
2022-09-05T13:39:20.286Z,1.40
2022-09-05T13:42:43.725Z,1.58
2022-09-05T13:46:24.601Z,1.40
2022-09-05T13:49:44.765Z,1.60
2022-09-05T13:52:49.531Z,1.33
2022-09-05T13:56:03.522Z,1.30
2022-09-05T13:59:14.219Z,1.60
2022-09-05T14:06:47.557Z,1.40
2022-09-05T14:10:12.719Z,1.60
2022-09-05T14:13:43.118Z,1.52
2022-09-05T14:16:54.469Z,1.38
2022-09-05T14:20:18.415Z,1.55
2022-09-05T14:26:34.261Z,1.45
2022-09-05T14:29:48.395Z,1.30
2022-09-05T14:37:49.994Z,1.58
2022-09-05T14:37:50.096Z,1.50
2022-09-05T14:40:54.350Z,1.77
2022-09-05T14:44:16.236Z,1.55
2022-09-05T14:47:50.809Z,1.60
2022-09-05T14:51:25.734Z,1.33
2022-09-05T15:02:39.119Z,1.75
2022-09-05T15:02:55.253Z,1.33
2022-09-05T15:05:16.268Z,1.75
2022-09-05T15:11:24.494Z,1.55
2022-09-05T15:12:23.890Z,1.60
2022-09-05T15:15:34.679Z,1.40
2022-09-05T15:18:44.129Z,1.35
2022-09-05T15:21:52.453Z,1.70
2022-09-05T15:25:17.119Z,1.42
2022-09-05T15:28:22.099Z,1.42
2022-09-05T15:31:27.924Z,1.50
2022-09-05T15:34:38.346Z,1.50
2022-09-05T15:37:42.560Z,1.40
2022-09-05T15:40:44.939Z,1.40
2022-09-05T15:44:09.410Z,1.30
2022-09-05T15:47:33.872Z,1.45
2022-09-05T15:50:51.263Z,1.50
2022-09-05T15:53:54.138Z,1.30
2022-09-05T16:00:30.338Z,1.40
2022-09-05T16:07:32.851Z,1.50
2022-09-05T16:10:39.977Z,1.40
2022-09-05T16:11:28.451Z,1.60
2022-09-05T16:14:36.538Z,1.63
2022-09-05T16:23:20.195Z,1.48
2022-09-05T16:23:32.502Z,1.52
2022-09-05T16:25:22.256Z,1.55
2022-09-05T16:28:35.709Z,1.88
2022-09-05T16:35:26.464Z,1.40
2022-09-05T16:39:09.447Z,1.90
2022-09-05T16:42:47.164Z,1.50
2022-09-05T16:46:32.727Z,1.90
2022-09-05T16:49:58.818Z,1.77
2022-09-05T16:53:58.468Z,1.35
2022-09-05T16:57:38.543Z,1.40
2022-09-05T17:01:06.896Z,1.40
2022-09-05T17:04:27.087Z,1.30
2022-09-05T17:07:50.850Z,1.63
2022-09-05T17:11:03.727Z,1.10
2022-09-05T17:14:21.087Z,1.10
2022-09-05T17:18:19.063Z,1.50
2022-09-05T17:21:12.620Z,1.60
2022-09-05T17:29:47.134Z,1.50
2022-09-05T17:34:49.790Z,1.70
2022-09-05T17:38:18.254Z,1.60
2022-09-05T17:42:05.149Z,1.90
2022-09-05T17:45:41.352Z,1.55
2022-09-05T17:48:58.620Z,1.50
2022-09-05T17:52:17.486Z,1.60
2022-09-05T17:55:19.238Z,1.48
2022-09-05T17:59:20.878Z,1.50
2022-09-05T18:02:03.565Z,1.92
2022-09-05T18:08:56.671Z,1.65
2022-09-05T18:13:11.901Z,1.73
2022-09-05T18:15:34.684Z,1.77
2022-09-05T18:19:32.911Z,1.30
2022-09-05T18:22:10.236Z,1.50
2022-09-05T18:25:33.371Z,1.70
2022-09-05T18:28:54.216Z,2.03
2022-09-05T18:31:59.570Z,1.50
2022-09-05T18:35:26.719Z,1.52
2022-09-05T18:38:51.851Z,1.50
2022-09-05T18:42:07.059Z,1.70
2022-09-05T18:50:21.425Z,2.22
2022-09-05T18:52:29.959Z,1.83
2022-09-05T18:56:13.363Z,2.22
2022-09-05T18:59:24.759Z,2.10
2022-09-05T19:02:58.387Z,1.90
2022-09-05T19:09:39.198Z,2.30
2022-09-05T19:12:54.379Z,2.17
2022-09-05T19:16:47.200Z,2.60
2022-09-05T19:20:33.901Z,2.00
2022-09-05T19:23:51.999Z,2.30
2022-09-05T19:27:53.128Z,2.33
2022-09-05T19:37:11.973Z,2.15
2022-09-05T19:37:48.834Z,1.80
2022-09-05T19:47:29.276Z,2.50
2022-09-05T19:47:38.549Z,2.40
2022-09-05T19:48:34.906Z,2.67
2022-09-05T19:51:41.822Z,2.38
2022-09-05T19:55:50.331Z,2.38
2022-09-05T19:58:52.833Z,2.60
2022-09-05T20:01:58.091Z,3.37
2022-09-05T20:05:19.036Z,2.92
2022-09-05T20:08:35.364Z,2.80
2022-09-05T20:11:58.200Z,2.90
2022-09-05T20:19:17.140Z,3.03
2022-09-05T20:22:48.857Z,2.75
2022-09-05T20:26:07.767Z,2.80
2022-09-05T20:30:37.488Z,2.55
2022-09-05T20:33:56.173Z,2.28
2022-09-05T20:43:10.460Z,2.40
2022-09-05T20:43:17.607Z,2.57
2022-09-05T20:44:08.691Z,2.60
2022-09-05T20:54:08.618Z,2.97
2022-09-05T20:54:21.521Z,2.55
2022-09-05T20:54:34.687Z,2.23
2022-09-05T20:57:47.414Z,2.30
2022-09-05T21:01:20.079Z,2.50
2022-09-05T21:04:38.608Z,2.40
2022-09-05T21:07:48.077Z,2.38
2022-09-05T21:11:05.411Z,2.72
2022-09-05T21:14:24.667Z,2.05
2022-09-05T21:17:38.934Z,1.90
2022-09-05T21:20:54.090Z,2.22
2022-09-05T21:24:25.075Z,1.65
2022-09-05T21:30:52.600Z,1.98
2022-09-05T21:34:00.787Z,2.28
2022-09-05T21:37:07.239Z,1.75
2022-09-05T21:40:13.833Z,1.60
2022-09-05T21:47:27.502Z,1.80
2022-09-05T21:47:44.282Z,1.90
2022-09-05T21:49:59.998Z,1.92
2022-09-05T21:59:05.424Z,1.55
2022-09-05T21:59:18.514Z,1.75
2022-09-05T22:00:15.273Z,1.80
2022-09-05T22:03:32.473Z,1.70
2022-09-05T22:06:34.541Z,1.80
2022-09-05T22:09:52.412Z,1.75
2022-09-05T22:12:54.845Z,1.67
2022-09-05T22:16:08.959Z,1.63
2022-09-05T22:19:11.388Z,1.60
2022-09-05T22:22:16.974Z,1.60
2022-09-05T22:25:33.174Z,1.40
2022-09-05T22:28:46.394Z,1.60
2022-09-05T22:31:48.567Z,1.50
2022-09-05T22:34:56.819Z,1.70
2022-09-05T22:38:29.066Z,1.60
2022-09-05T22:44:49.302Z,1.75
2022-09-05T22:47:57.858Z,1.77
2022-09-05T22:50:59.813Z,1.65
2022-09-05T22:54:02.145Z,1.50
2022-09-05T22:57:10.850Z,1.52
2022-09-05T23:00:12.983Z,1.70
2022-09-05T23:03:14.781Z,1.70
2022-09-05T23:06:47.864Z,1.75
2022-09-05T23:09:49.656Z,1.70
2022-09-05T23:16:27.358Z,2.08
2022-09-05T23:19:30.961Z,2.45
2022-09-05T23:22:35.978Z,2.03
2022-09-05T23:25:43.888Z,2.53
2022-09-05T23:28:54.946Z,2.50
2022-09-05T23:31:59.661Z,2.97
2022-09-05T23:35:04.886Z,2.90
2022-09-05T23:38:11.170Z,2.90
2022-09-05T23:41:15.351Z,2.83
2022-09-05T23:44:17.154Z,2.90
2022-09-05T23:47:19.180Z,3.55
2022-09-05T23:50:44.153Z,3.42
2022-09-05T23:54:10.445Z,3.95
2022-09-05T23:57:12.292Z,4.28
